createdAt,value
2018-05-12T00:01:12.521Z,100.00
2018-05-12T00:03:40.158Z,100.00
2018-05-12T00:06:07.752Z,100.00
2018-05-12T00:08:35.338Z,100.00
2018-05-12T00:11:02.963Z,100.00
2018-05-12T00:13:30.548Z,100.00
2018-05-12T00:15:58.165Z,100.00
2018-05-12T00:18:25.795Z,100.00
2018-05-12T00:20:53.396Z,100.00
2018-05-12T00:23:20.985Z,100.00
2018-05-12T00:25:48.671Z,100.00
2018-05-12T00:28:16.277Z,100.00
2018-05-12T00:30:43.861Z,100.00
2018-05-12T00:33:11.492Z,100.00
2018-05-12T00:35:39.088Z,100.00
2018-05-12T00:38:06.685Z,100.00
2018-05-12T00:40:34.308Z,100.00
2018-05-12T00:43:02.011Z,100.00
2018-05-12T00:45:29.535Z,100.00
2018-05-12T00:47:57.152Z,100.00
2018-05-12T00:50:24.749Z,100.00
2018-05-12T00:52:52.326Z,100.00
2018-05-12T00:55:20.005Z,100.00
2018-05-12T00:57:47.589Z,100.00
2018-05-12T01:00:15.171Z,100.00
2018-05-12T01:02:42.796Z,100.00
2018-05-12T01:05:10.393Z,100.00
2018-05-12T01:07:37.978Z,100.00
2018-05-12T01:10:05.607Z,100.00
2018-05-12T01:12:33.189Z,100.00
2018-05-12T01:15:00.784Z,100.00
2018-05-12T01:17:28.435Z,100.00
2018-05-12T01:19:56.020Z,100.00
2018-05-12T01:22:23.625Z,100.00
2018-05-12T01:24:51.258Z,100.00
2018-05-12T01:27:18.865Z,100.00
2018-05-12T01:29:46.443Z,100.00
2018-05-12T01:32:14.109Z,100.00
2018-05-12T01:34:41.701Z,100.00
2018-05-12T01:37:09.291Z,100.00
2018-05-12T01:39:36.902Z,100.00
2018-05-12T01:42:04.489Z,100.00
2018-05-12T01:44:32.078Z,100.00
2018-05-12T01:46:59.735Z,100.00
2018-05-12T01:49:27.322Z,100.00
2018-05-12T01:51:54.912Z,100.00
2018-05-12T01:54:22.571Z,100.00
2018-05-12T01:56:50.168Z,100.00
2018-05-12T01:59:17.761Z,100.00
2018-05-12T02:01:45.387Z,100.00
2018-05-12T02:04:12.999Z,100.00
2018-05-12T02:06:40.592Z,100.00
2018-05-12T02:09:08.292Z,100.00
2018-05-12T02:11:35.857Z,100.00
2018-05-12T02:14:03.484Z,100.00
2018-05-12T02:16:31.123Z,100.00
2018-05-12T02:18:58.712Z,100.00
2018-05-12T02:21:26.314Z,100.00
2018-05-12T02:23:53.956Z,100.00
2018-05-12T02:26:21.545Z,100.00
2018-05-12T02:28:49.135Z,100.00
2018-05-12T02:31:16.810Z,100.00
2018-05-12T02:33:44.407Z,100.00
2018-05-12T02:36:12.046Z,100.00
2018-05-12T02:38:39.727Z,100.00
2018-05-12T02:41:07.312Z,100.00
2018-05-12T02:43:34.888Z,100.00
2018-05-12T02:46:02.495Z,100.00
2018-05-12T02:48:30.084Z,100.00
2018-05-12T02:50:57.667Z,100.00
2018-05-12T02:53:25.301Z,100.00
2018-05-12T02:55:52.892Z,100.00
2018-05-12T02:58:20.473Z,100.00
2018-05-12T03:00:48.100Z,100.00
2018-05-12T03:03:15.685Z,100.00
2018-05-12T03:05:43.276Z,100.00
2018-05-12T03:08:10.908Z,100.00
2018-05-12T03:10:38.510Z,100.00
2018-05-12T03:13:06.109Z,100.00
2018-05-12T03:15:33.743Z,100.00
2018-05-12T03:18:01.334Z,100.00
2018-05-12T03:20:28.976Z,100.00
2018-05-12T03:22:56.599Z,100.00
2018-05-12T03:25:24.194Z,100.00
2018-05-12T03:27:51.801Z,100.00
2018-05-12T03:30:19.427Z,100.00
2018-05-12T03:32:47.032Z,100.00
2018-05-12T03:35:14.626Z,100.00
2018-05-12T03:37:42.255Z,100.00
2018-05-12T03:40:09.843Z,100.00
2018-05-12T03:42:37.428Z,100.00
2018-05-12T03:45:05.084Z,100.00
2018-05-12T03:47:32.661Z,100.00
2018-05-12T03:50:00.256Z,100.00
2018-05-12T03:52:27.891Z,100.00
2018-05-12T03:54:55.571Z,100.00
2018-05-12T03:57:23.165Z,100.00
2018-05-12T03:59:50.825Z,100.00
2018-05-12T04:02:18.419Z,100.00
2018-05-12T04:04:57.868Z,100.00
2018-05-12T04:07:37.148Z,100.00
2018-05-12T04:10:16.468Z,100.00
2018-05-12T04:12:44.051Z,99.31
2018-05-12T04:15:11.623Z,98.53
2018-05-12T04:17:39.233Z,97.43
2018-05-12T04:20:06.817Z,97.02
2018-05-12T04:22:34.475Z,95.82
2018-05-12T04:25:02.098Z,95.16
2018-05-12T04:27:29.685Z,93.56
2018-05-12T04:29:57.254Z,92.70
2018-05-12T04:32:24.865Z,91.24
2018-05-12T04:34:52.456Z,90.78
2018-05-12T04:37:20.036Z,90.78
2018-05-12T04:39:47.649Z,90.19
2018-05-12T04:42:15.228Z,88.41
2018-05-12T04:44:42.794Z,87.83
2018-05-12T04:47:10.407Z,87.08
2018-05-12T04:49:37.996Z,88.32
2018-05-12T04:52:05.592Z,89.33
2018-05-12T04:54:33.222Z,90.96
2018-05-12T04:57:00.807Z,91.63
2018-05-12T04:59:28.389Z,91.99
2018-05-12T05:01:56.005Z,93.23
2018-05-12T05:04:23.603Z,90.24
2018-05-12T05:06:51.182Z,85.36
2018-05-12T05:09:18.783Z,79.93
2018-05-12T05:11:46.353Z,79.24
2018-05-12T05:14:13.927Z,81.31
2018-05-12T05:16:41.541Z,82.68
2018-05-12T05:19:09.124Z,83.09
2018-05-12T05:21:36.708Z,84.80
2018-05-12T05:24:04.330Z,83.14
2018-05-12T05:26:31.932Z,82.55
2018-05-12T05:28:59.549Z,81.41
2018-05-12T05:31:27.168Z,80.62
2018-05-12T05:33:54.755Z,80.33
2018-05-12T05:36:22.315Z,81.76
2018-05-12T05:38:49.936Z,80.49
2018-05-12T05:41:17.507Z,78.91
2018-05-12T05:43:45.086Z,76.60
2018-05-12T05:46:12.708Z,70.72
2018-05-12T05:48:40.298Z,66.49
2018-05-12T05:51:07.913Z,62.99
2018-05-12T05:53:35.493Z,58.08
2018-05-12T05:56:03.070Z,52.98
2018-05-12T05:58:30.638Z,50.04
2018-05-12T06:00:58.280Z,48.69
2018-05-12T06:03:25.860Z,47.67
2018-05-12T06:05:53.422Z,45.94
2018-05-12T06:08:21.042Z,45.98
2018-05-12T06:10:48.600Z,44.94
2018-05-12T06:13:16.171Z,44.44
2018-05-12T06:15:43.783Z,45.53
2018-05-12T06:18:11.403Z,48.13
2018-05-12T06:20:38.950Z,44.93
2018-05-12T06:23:06.594Z,44.40
2018-05-12T06:25:34.168Z,44.22
2018-05-12T06:28:01.749Z,43.52
2018-05-12T06:30:29.357Z,42.23
2018-05-12T06:32:56.972Z,39.98
2018-05-12T06:35:24.580Z,39.22
2018-05-12T06:37:52.186Z,40.36
2018-05-12T06:40:19.766Z,43.95
2018-05-12T06:42:47.342Z,44.85
2018-05-12T06:45:14.947Z,43.81
2018-05-12T06:47:42.515Z,42.37
2018-05-12T06:50:10.133Z,43.24
2018-05-12T06:52:37.743Z,44.89
2018-05-12T06:55:05.312Z,47.17
2018-05-12T06:57:32.905Z,42.54
2018-05-12T07:00:00.527Z,40.38
2018-05-12T07:02:28.094Z,39.35
2018-05-12T07:04:55.681Z,38.76
2018-05-12T07:07:23.338Z,39.06
2018-05-12T07:09:50.907Z,35.87
2018-05-12T07:12:18.530Z,34.08
2018-05-12T07:14:46.134Z,32.19
2018-05-12T07:17:13.712Z,33.11
2018-05-12T07:19:41.304Z,32.94
2018-05-12T07:22:08.920Z,30.00
2018-05-12T07:24:36.497Z,28.77
2018-05-12T07:27:04.048Z,26.53
2018-05-12T07:29:31.713Z,29.10
2018-05-12T07:31:59.302Z,31.41
2018-05-12T07:34:26.884Z,35.04
2018-05-12T07:36:54.489Z,37.21
2018-05-12T07:39:22.065Z,34.81
2018-05-12T07:41:49.637Z,34.96
2018-05-12T07:44:17.239Z,33.26
2018-05-12T07:46:44.811Z,33.59
2018-05-12T07:49:12.386Z,28.60
2018-05-12T07:51:40.258Z,29.18
2018-05-12T07:54:07.788Z,25.21
2018-05-12T07:56:35.381Z,28.60
2018-05-12T07:59:02.999Z,27.61
2018-05-12T08:01:30.571Z,28.76
2018-05-12T08:03:58.160Z,28.36
2018-05-12T08:06:25.763Z,24.50
2018-05-12T08:08:53.342Z,23.70
2018-05-12T08:11:20.932Z,25.70
2018-05-12T08:13:48.548Z,26.97
2018-05-12T08:16:16.175Z,28.05
2018-05-12T08:18:43.763Z,28.39
2018-05-12T08:21:11.382Z,29.29
2018-05-12T08:23:38.956Z,28.39
2018-05-12T08:26:06.602Z,26.69
2018-05-12T08:28:34.218Z,24.43
2018-05-12T08:31:01.807Z,25.88
2018-05-12T08:33:29.374Z,27.61
2018-05-12T08:35:57.066Z,26.14
2018-05-12T08:38:24.638Z,26.36
2018-05-12T08:40:52.218Z,24.22
2018-05-12T08:43:20.740Z,24.91
2018-05-12T08:45:48.309Z,26.36
2018-05-12T08:48:15.962Z,26.99
2018-05-12T08:50:43.531Z,28.06
2018-05-12T08:53:11.095Z,29.48
2018-05-12T08:55:38.681Z,30.12
2018-05-12T08:58:06.283Z,27.41
2018-05-12T09:00:33.855Z,27.70
2018-05-12T09:03:01.432Z,29.95
2018-05-12T09:05:29.049Z,28.67
2018-05-12T09:07:56.673Z,25.15
2018-05-12T09:10:24.252Z,25.51
2018-05-12T09:12:52.006Z,25.96
2018-05-12T09:15:19.645Z,27.03
2018-05-12T09:17:47.215Z,28.52
2018-05-12T09:20:14.834Z,28.57
2018-05-12T09:22:42.429Z,31.47
2018-05-12T09:25:10.018Z,34.30
2018-05-12T09:27:37.634Z,34.37
2018-05-12T09:30:05.212Z,32.10
2018-05-12T09:32:32.799Z,31.48
2018-05-12T09:35:00.432Z,31.42
2018-05-12T09:37:28.011Z,27.55
2018-05-12T09:39:55.589Z,26.64
2018-05-12T09:42:23.254Z,27.25
2018-05-12T09:44:50.854Z,25.83
2018-05-12T09:47:18.401Z,26.89
2018-05-12T09:49:46.027Z,26.95
2018-05-12T09:52:13.622Z,26.60
2018-05-12T09:54:41.199Z,27.35
2018-05-12T09:57:08.833Z,27.50
2018-05-12T09:59:36.662Z,26.89
2018-05-12T10:02:04.214Z,26.32
2018-05-12T10:04:31.828Z,26.35
2018-05-12T10:06:59.403Z,25.78
2018-05-12T10:09:26.985Z,25.12
2018-05-12T10:11:54.582Z,27.31
2018-05-12T10:14:22.152Z,28.25
2018-05-12T10:16:49.807Z,29.06
2018-05-12T10:19:17.469Z,32.12
2018-05-12T10:21:45.058Z,32.22
2018-05-12T10:24:12.687Z,32.28
2018-05-12T10:26:40.289Z,32.60
2018-05-12T10:29:07.865Z,33.57
2018-05-12T10:31:35.443Z,32.34
2018-05-12T10:34:03.070Z,34.22
2018-05-12T10:36:30.652Z,33.58
2018-05-12T10:38:58.286Z,32.58
2018-05-12T10:41:26.019Z,31.57
2018-05-12T10:43:53.630Z,32.32
2018-05-12T10:46:21.217Z,31.02
2018-05-12T10:48:48.905Z,31.23
2018-05-12T10:51:16.482Z,32.36
2018-05-12T10:53:44.077Z,31.98
2018-05-12T10:56:11.763Z,33.93
2018-05-12T10:58:39.437Z,35.27
2018-05-12T11:01:07.315Z,33.43
2018-05-12T11:03:34.929Z,33.86
2018-05-12T11:06:02.496Z,32.98
2018-05-12T11:08:30.178Z,30.88
2018-05-12T11:10:57.804Z,31.02
2018-05-12T11:13:25.409Z,26.42
2018-05-12T11:15:53.088Z,28.05
2018-05-12T11:18:20.754Z,27.78
2018-05-12T11:20:48.356Z,26.64
2018-05-12T11:23:16.060Z,27.45
2018-05-12T11:25:43.731Z,29.13
2018-05-12T11:28:11.294Z,29.88
2018-05-12T11:30:38.868Z,30.43
2018-05-12T11:33:10.051Z,31.31
2018-05-12T11:35:40.775Z,32.42
2018-05-12T11:38:12.487Z,31.62
2018-05-12T11:40:40.341Z,31.06
2018-05-12T11:43:07.926Z,29.95
2018-05-12T11:45:35.553Z,29.23
2018-05-12T11:48:03.140Z,30.15
2018-05-12T11:50:30.779Z,32.16
2018-05-12T11:52:58.552Z,34.47
2018-05-12T11:55:26.111Z,34.78
2018-05-12T11:57:53.685Z,35.86
2018-05-12T12:00:21.304Z,36.78
2018-05-12T12:02:48.884Z,35.26
2018-05-12T12:05:16.450Z,35.39
2018-05-12T12:07:44.051Z,35.38
2018-05-12T12:10:11.792Z,34.55
2018-05-12T12:12:39.358Z,34.30
2018-05-12T12:15:07.105Z,33.16
2018-05-12T12:17:34.775Z,32.81
2018-05-12T12:20:02.445Z,30.09
2018-05-12T12:22:30.067Z,28.45
2018-05-12T12:24:57.631Z,26.87
2018-05-12T12:27:25.206Z,26.86
2018-05-12T12:29:52.892Z,26.33
2018-05-12T12:32:20.549Z,26.75
2018-05-12T12:34:48.190Z,26.26
2018-05-12T12:37:15.802Z,27.51
2018-05-12T12:39:43.533Z,26.61
2018-05-12T12:42:11.181Z,27.95
2018-05-12T12:44:38.800Z,28.42
2018-05-12T12:47:06.372Z,30.25
2018-05-12T12:49:33.975Z,30.19
2018-05-12T12:52:01.586Z,30.93
2018-05-12T12:54:29.289Z,32.37
2018-05-12T12:56:56.878Z,33.81
2018-05-12T12:59:24.588Z,33.68
2018-05-12T13:01:52.276Z,34.05
2018-05-12T13:04:19.932Z,34.85
2018-05-12T13:06:47.601Z,35.38
2018-05-12T13:09:15.188Z,34.49
2018-05-12T13:11:42.939Z,33.66
2018-05-12T13:14:10.556Z,34.26
2018-05-12T13:16:38.148Z,34.77
2018-05-12T13:19:05.919Z,34.27
2018-05-12T13:21:33.734Z,35.17
2018-05-12T13:24:01.453Z,35.08
2018-05-12T13:26:29.099Z,35.90
2018-05-12T13:28:56.731Z,36.31
2018-05-12T13:31:24.321Z,36.27
2018-05-12T13:33:52.094Z,35.89
2018-05-12T13:36:19.754Z,36.97
2018-05-12T13:38:47.637Z,36.18
2018-05-12T13:41:15.475Z,36.01
2018-05-12T13:43:43.151Z,36.41
2018-05-12T13:46:10.748Z,38.05
2018-05-12T13:48:38.325Z,37.92
2018-05-12T13:51:05.937Z,37.55
2018-05-12T13:53:33.584Z,37.31
2018-05-12T13:56:01.413Z,37.86
2018-05-12T13:58:28.954Z,37.26
2018-05-12T14:00:56.534Z,37.40
2018-05-12T14:03:24.153Z,37.24
2018-05-12T14:05:52.005Z,37.06
2018-05-12T14:08:19.885Z,37.40
2018-05-12T14:10:47.464Z,37.75
2018-05-12T14:13:15.205Z,39.36
2018-05-12T14:15:42.781Z,38.32
2018-05-12T14:18:10.520Z,39.68
2018-05-12T14:20:38.404Z,37.99
2018-05-12T14:23:06.009Z,39.44
2018-05-12T14:25:33.726Z,37.21
2018-05-12T14:28:01.376Z,37.58
2018-05-12T14:30:29.043Z,38.37
2018-05-12T14:32:56.712Z,37.67
2018-05-12T14:35:24.343Z,37.63
2018-05-12T14:37:51.925Z,38.18
2018-05-12T14:40:19.513Z,37.14
2018-05-12T14:42:47.213Z,37.92
2018-05-12T14:45:14.788Z,38.06
2018-05-12T14:47:42.366Z,38.16
2018-05-12T14:50:10.130Z,37.29
2018-05-12T14:52:37.703Z,38.39
2018-05-12T14:55:05.646Z,38.14
2018-05-12T14:57:33.328Z,38.42
2018-05-12T15:00:00.990Z,38.79
2018-05-12T15:02:28.724Z,39.79
2018-05-12T15:04:56.521Z,39.89
2018-05-12T15:07:24.185Z,38.99
2018-05-12T15:09:51.800Z,39.26
2018-05-12T15:12:19.464Z,38.69
2018-05-12T15:14:47.054Z,39.51
2018-05-12T15:17:14.656Z,38.19
2018-05-12T15:19:42.259Z,38.52
2018-05-12T15:22:09.942Z,37.80
2018-05-12T15:24:37.620Z,38.65
2018-05-12T15:27:05.267Z,39.22
2018-05-12T15:29:32.945Z,40.02
2018-05-12T15:32:00.592Z,39.73
2018-05-12T15:34:28.197Z,39.52
2018-05-12T15:36:55.767Z,39.71
2018-05-12T15:39:23.349Z,40.51
2018-05-12T15:41:51.037Z,39.69
2018-05-12T15:44:18.716Z,40.89
2018-05-12T15:46:46.378Z,41.46
2018-05-12T15:49:14.228Z,42.43
2018-05-12T15:51:41.894Z,40.14
2018-05-12T15:54:09.479Z,42.34
2018-05-12T15:56:37.229Z,40.81
2018-05-12T15:59:04.836Z,41.82
2018-05-12T16:01:32.761Z,42.17
2018-05-12T16:04:00.392Z,41.88
2018-05-12T16:06:28.084Z,43.98
2018-05-12T16:08:55.658Z,44.78
2018-05-12T16:11:23.271Z,44.46
2018-05-12T16:13:50.842Z,46.35
2018-05-12T16:16:18.532Z,45.68
2018-05-12T16:18:46.143Z,47.16
2018-05-12T16:21:13.852Z,47.28
2018-05-12T16:23:41.419Z,47.28
2018-05-12T16:26:09.041Z,47.80
2018-05-12T16:28:36.819Z,48.20
2018-05-12T16:31:04.399Z,48.18
2018-05-12T16:33:32.155Z,47.75
2018-05-12T16:35:59.771Z,48.21
2018-05-12T16:38:27.490Z,47.36
2018-05-12T16:40:55.109Z,47.97
2018-05-12T16:43:22.678Z,47.67
2018-05-12T16:45:50.256Z,47.55
2018-05-12T16:48:17.895Z,48.45
2018-05-12T16:50:45.539Z,48.30
2018-05-12T16:53:13.243Z,48.49
2018-05-12T16:55:41.113Z,49.33
2018-05-12T16:58:08.777Z,49.92
2018-05-12T17:00:36.401Z,48.72
2018-05-12T17:03:04.016Z,48.62
2018-05-12T17:05:31.761Z,47.82
2018-05-12T17:07:59.641Z,47.84
2018-05-12T17:10:27.297Z,47.88
2018-05-12T17:12:54.951Z,48.65
2018-05-12T17:15:22.624Z,49.35
2018-05-12T17:17:50.276Z,48.97
2018-05-12T17:20:17.871Z,49.94
2018-05-12T17:22:45.453Z,50.25
2018-05-12T17:25:13.088Z,50.41
2018-05-12T17:27:40.734Z,50.61
2018-05-12T17:30:08.386Z,50.96
2018-05-12T17:32:36.001Z,50.70
2018-05-12T17:35:03.593Z,49.71
2018-05-12T17:37:31.164Z,50.75
2018-05-12T17:39:58.828Z,51.67
2018-05-12T17:42:26.506Z,50.20
2018-05-12T17:44:54.152Z,50.27
2018-05-12T17:47:21.936Z,50.14
2018-05-12T17:49:49.686Z,49.13
2018-05-12T17:52:17.260Z,49.72
2018-05-12T17:54:44.867Z,50.41
2018-05-12T17:57:12.468Z,50.16
2018-05-12T17:59:40.038Z,50.85
2018-05-12T18:02:07.799Z,52.08
2018-05-12T18:04:35.468Z,52.59
2018-05-12T18:07:03.044Z,53.62
2018-05-12T18:09:30.685Z,55.02
2018-05-12T18:11:58.433Z,55.81
2018-05-12T18:14:26.102Z,56.70
2018-05-12T18:16:53.752Z,56.84
2018-05-12T18:19:21.334Z,56.48
2018-05-12T18:21:48.901Z,58.11
2018-05-12T18:24:16.572Z,55.57
2018-05-12T18:26:44.155Z,56.46
2018-05-12T18:29:11.714Z,55.65
2018-05-12T18:31:39.317Z,56.79
2018-05-12T18:34:06.987Z,55.34
2018-05-12T18:36:34.850Z,56.14
2018-05-12T18:39:02.524Z,57.69
2018-05-12T18:41:30.108Z,57.55
2018-05-12T18:43:57.669Z,56.31
2018-05-12T18:46:25.307Z,57.51
2018-05-12T18:48:52.951Z,66.01
2018-05-12T18:51:20.512Z,68.08
2018-05-12T18:53:48.103Z,68.27
2018-05-12T18:56:15.740Z,63.39
2018-05-12T18:58:43.404Z,62.78
2018-05-12T19:01:11.076Z,64.18
2018-05-12T19:03:38.724Z,65.11
2018-05-12T19:06:06.304Z,64.53
2018-05-12T19:08:33.911Z,63.62
2018-05-12T19:11:01.493Z,61.73
2018-05-12T19:13:29.084Z,61.47
2018-05-12T19:15:56.692Z,60.27
2018-05-12T19:18:24.306Z,65.18
2018-05-12T19:20:51.866Z,65.15
2018-05-12T19:23:19.612Z,63.28
2018-05-12T19:25:47.186Z,63.74
2018-05-12T19:28:14.943Z,70.06
2018-05-12T19:30:42.539Z,66.86
2018-05-12T19:33:10.107Z,69.34
2018-05-12T19:35:37.944Z,67.42
2018-05-12T19:38:05.787Z,65.26
2018-05-12T19:40:33.459Z,65.00
2018-05-12T19:43:01.112Z,61.69
2018-05-12T19:45:28.704Z,62.17
2018-05-12T19:47:56.261Z,61.04
2018-05-12T19:50:23.841Z,61.73
2018-05-12T19:52:51.435Z,62.44
2018-05-12T19:55:19.022Z,62.01
2018-05-12T19:57:46.598Z,62.26
2018-05-12T20:00:14.259Z,63.90
2018-05-12T20:02:41.839Z,63.40
2018-05-12T20:05:09.520Z,63.50
2018-05-12T20:07:37.124Z,63.82
2018-05-12T20:10:04.701Z,64.11
2018-05-12T20:12:32.278Z,64.71
2018-05-12T20:14:59.992Z,63.88
2018-05-12T20:17:27.604Z,64.48
2018-05-12T20:19:55.363Z,65.53
2018-05-12T20:22:23.145Z,65.92
2018-05-12T20:24:50.762Z,65.92
2018-05-12T20:27:18.379Z,65.63
2018-05-12T20:29:46.417Z,65.86
2018-05-12T20:32:14.250Z,65.89
2018-05-12T20:34:42.857Z,67.21
2018-05-12T20:37:10.756Z,67.35
2018-05-12T20:39:38.383Z,67.78
2018-05-12T20:42:05.975Z,68.45
2018-05-12T20:44:33.574Z,68.29
2018-05-12T20:47:01.202Z,69.07
2018-05-12T20:49:28.778Z,72.05
2018-05-12T20:51:56.381Z,70.85
2018-05-12T20:54:23.972Z,69.93
2018-05-12T20:56:51.557Z,68.77
2018-05-12T20:59:19.149Z,68.50
2018-05-12T21:01:46.825Z,67.71
2018-05-12T21:04:14.408Z,67.09
2018-05-12T21:06:42.037Z,65.27
2018-05-12T21:09:09.636Z,64.19
2018-05-12T21:11:37.225Z,68.32
2018-05-12T21:14:04.859Z,64.59
2018-05-12T21:16:32.458Z,71.33
2018-05-12T21:19:00.169Z,68.59
2018-05-12T21:21:27.774Z,66.87
2018-05-12T21:23:55.441Z,69.69
2018-05-12T21:26:23.036Z,70.61
2018-05-12T21:28:50.716Z,73.13
2018-05-12T21:31:18.274Z,74.14
2018-05-12T21:33:45.848Z,74.24
2018-05-12T21:36:13.499Z,67.68
2018-05-12T21:38:41.056Z,70.76
2018-05-12T21:41:08.650Z,67.05
2018-05-12T21:43:36.264Z,66.31
2018-05-12T21:46:03.857Z,69.15
2018-05-12T21:48:31.469Z,68.75
2018-05-12T21:50:59.084Z,68.62
2018-05-12T21:53:26.653Z,67.87
2018-05-12T21:55:54.260Z,68.26
2018-05-12T21:58:22.152Z,69.27
2018-05-12T22:00:49.748Z,67.56
2018-05-12T22:03:17.351Z,67.25
2018-05-12T22:05:44.962Z,67.78
2018-05-12T22:08:12.627Z,65.32
2018-05-12T22:10:40.197Z,65.71
2018-05-12T22:13:07.900Z,68.02
2018-05-12T22:15:35.494Z,63.83
2018-05-12T22:18:03.139Z,64.14
2018-05-12T22:20:30.860Z,67.34
2018-05-12T22:22:59.184Z,69.49
2018-05-12T22:25:26.850Z,68.28
2018-05-12T22:27:54.500Z,68.78
2018-05-12T22:30:22.135Z,70.78
2018-05-12T22:32:49.708Z,70.66
2018-05-12T22:35:17.320Z,72.12
2018-05-12T22:37:44.894Z,73.95
2018-05-12T22:40:12.519Z,73.38
2018-05-12T22:42:40.275Z,75.06
2018-05-12T22:45:07.919Z,64.96
2018-05-12T22:47:35.501Z,66.51
2018-05-12T22:50:03.108Z,67.36
2018-05-12T22:52:30.856Z,63.90
2018-05-12T22:54:58.443Z,71.13
2018-05-12T22:57:26.231Z,73.34
2018-05-12T22:59:53.836Z,74.85
2018-05-12T23:02:21.403Z,77.10
2018-05-12T23:04:49.032Z,78.07
2018-05-12T23:07:16.645Z,78.33
2018-05-12T23:09:44.255Z,78.76
2018-05-12T23:12:11.890Z,78.15
2018-05-12T23:14:39.482Z,78.00
2018-05-12T23:17:07.052Z,78.75
2018-05-12T23:19:34.684Z,79.63
2018-05-12T23:22:02.276Z,79.95
2018-05-12T23:24:29.850Z,80.70
2018-05-12T23:26:57.460Z,80.67
2018-05-12T23:29:25.027Z,80.05
2018-05-12T23:31:52.604Z,80.19
2018-05-12T23:34:20.236Z,79.47
2018-05-12T23:36:47.846Z,79.02
2018-05-12T23:39:15.438Z,80.07
2018-05-12T23:41:43.057Z,79.63
2018-05-12T23:44:10.633Z,80.50
2018-05-12T23:46:38.218Z,79.84
2018-05-12T23:49:05.823Z,80.05
2018-05-12T23:51:33.488Z,81.27
2018-05-12T23:54:01.059Z,81.34
2018-05-12T23:56:28.661Z,82.86
2018-05-12T23:58:56.320Z,82.11
